sensor_id;sensor_type;location;lat;lon;timestamp;P1;durP1;ratioP1;P2;durP2;ratioP2
49824;SDS011;35714;55.708;37.478;2023-05-10T00:01:29;8.80;;;3.58;;
49824;SDS011;35714;55.708;37.478;2023-05-10T00:03:55;8.05;;;3.38;;
49824;SDS011;35714;55.708;37.478;2023-05-10T00:06:20;9.90;;;3.90;;
49824;SDS011;35714;55.708;37.478;2023-05-10T00:08:46;11.43;;;3.72;;
49824;SDS011;35714;55.708;37.478;2023-05-10T00:11:12;10.75;;;3.97;;
49824;SDS011;35714;55.708;37.478;2023-05-10T00:13:37;10.80;;;4.00;;
49824;SDS011;35714;55.708;37.478;2023-05-10T00:16:03;11.85;;;3.72;;
49824;SDS011;35714;55.708;37.478;2023-05-10T00:18:29;12.55;;;3.70;;
49824;SDS011;35714;55.708;37.478;2023-05-10T00:20:54;7.22;;;3.20;;
49824;SDS011;35714;55.708;37.478;2023-05-10T00:23:20;10.27;;;3.28;;
49824;SDS011;35714;55.708;37.478;2023-05-10T00:25:46;8.93;;;3.75;;
49824;SDS011;35714;55.708;37.478;2023-05-10T00:28:11;11.15;;;3.10;;
49824;SDS011;35714;55.708;37.478;2023-05-10T00:30:37;6.78;;;3.58;;
49824;SDS011;35714;55.708;37.478;2023-05-10T00:33:02;10.50;;;3.80;;
49824;SDS011;35714;55.708;37.478;2023-05-10T00:35:28;7.95;;;3.63;;
49824;SDS011;35714;55.708;37.478;2023-05-10T00:37:54;7.18;;;3.08;;
49824;SDS011;35714;55.708;37.478;2023-05-10T00:40:20;8.18;;;3.20;;
49824;SDS011;35714;55.708;37.478;2023-05-10T00:42:49;9.02;;;3.30;;
49824;SDS011;35714;55.708;37.478;2023-05-10T00:45:15;6.40;;;3.08;;
49824;SDS011;35714;55.708;37.478;2023-05-10T00:47:41;7.25;;;3.33;;
49824;SDS011;35714;55.708;37.478;2023-05-10T00:50:07;7.50;;;3.42;;
49824;SDS011;35714;55.708;37.478;2023-05-10T00:52:34;6.85;;;2.83;;
49824;SDS011;35714;55.708;37.478;2023-05-10T00:55:00;11.10;;;3.45;;
49824;SDS011;35714;55.708;37.478;2023-05-10T00:57:26;7.45;;;3.25;;
49824;SDS011;35714;55.708;37.478;2023-05-10T00:59:52;12.95;;;3.72;;
49824;SDS011;35714;55.708;37.478;2023-05-10T01:02:18;6.38;;;2.63;;
49824;SDS011;35714;55.708;37.478;2023-05-10T01:04:43;7.43;;;3.20;;
49824;SDS011;35714;55.708;37.478;2023-05-10T01:07:09;8.05;;;2.70;;
49824;SDS011;35714;55.708;37.478;2023-05-10T01:09:36;7.95;;;2.28;;
49824;SDS011;35714;55.708;37.478;2023-05-10T01:12:02;13.68;;;3.22;;
49824;SDS011;35714;55.708;37.478;2023-05-10T01:14:29;10.93;;;2.83;;
49824;SDS011;35714;55.708;37.478;2023-05-10T01:16:55;5.78;;;2.47;;
49824;SDS011;35714;55.708;37.478;2023-05-10T01:19:28;6.72;;;2.70;;
49824;SDS011;35714;55.708;37.478;2023-05-10T01:35:41;8.77;;;3.45;;
49824;SDS011;35714;55.708;37.478;2023-05-10T01:38:32;8.40;;;2.83;;
49824;SDS011;35714;55.708;37.478;2023-05-10T01:43:53;9.65;;;3.88;;
49824;SDS011;35714;55.708;37.478;2023-05-10T01:46:32;8.43;;;3.20;;
49824;SDS011;35714;55.708;37.478;2023-05-10T01:49:01;7.00;;;2.83;;
49824;SDS011;35714;55.708;37.478;2023-05-10T01:51:31;6.97;;;3.05;;
49824;SDS011;35714;55.708;37.478;2023-05-10T01:58:58;5.95;;;2.25;;
49824;SDS011;35714;55.708;37.478;2023-05-10T02:01:26;10.05;;;2.88;;
49824;SDS011;35714;55.708;37.478;2023-05-10T02:03:53;8.27;;;3.20;;
49824;SDS011;35714;55.708;37.478;2023-05-10T02:06:20;11.80;;;3.03;;
49824;SDS011;35714;55.708;37.478;2023-05-10T02:08:47;7.63;;;3.17;;
49824;SDS011;35714;55.708;37.478;2023-05-10T02:11:14;9.60;;;2.97;;
49824;SDS011;35714;55.708;37.478;2023-05-10T02:13:43;6.13;;;2.53;;
49824;SDS011;35714;55.708;37.478;2023-05-10T02:16:10;9.40;;;3.15;;
49824;SDS011;35714;55.708;37.478;2023-05-10T02:18:38;8.52;;;2.85;;
49824;SDS011;35714;55.708;37.478;2023-05-10T02:21:06;11.25;;;3.63;;
49824;SDS011;35714;55.708;37.478;2023-05-10T02:23:33;9.40;;;3.75;;
49824;SDS011;35714;55.708;37.478;2023-05-10T02:26:01;11.13;;;3.65;;
49824;SDS011;35714;55.708;37.478;2023-05-10T02:28:29;6.90;;;2.90;;
49824;SDS011;35714;55.708;37.478;2023-05-10T02:30:56;9.57;;;3.53;;
49824;SDS011;35714;55.708;37.478;2023-05-10T02:33:22;9.95;;;2.92;;
49824;SDS011;35714;55.708;37.478;2023-05-10T02:35:51;7.95;;;2.88;;
49824;SDS011;35714;55.708;37.478;2023-05-10T02:38:18;8.68;;;3.42;;
49824;SDS011;35714;55.708;37.478;2023-05-10T02:40:45;10.40;;;2.60;;
49824;SDS011;35714;55.708;37.478;2023-05-10T02:43:14;8.50;;;2.85;;
49824;SDS011;35714;55.708;37.478;2023-05-10T02:45:42;7.95;;;2.45;;
49824;SDS011;35714;55.708;37.478;2023-05-10T02:48:09;8.45;;;2.55;;
49824;SDS011;35714;55.708;37.478;2023-05-10T02:50:35;7.20;;;2.22;;
49824;SDS011;35714;55.708;37.478;2023-05-10T02:53:04;7.22;;;2.40;;
49824;SDS011;35714;55.708;37.478;2023-05-10T02:55:35;5.88;;;2.13;;
49824;SDS011;35714;55.708;37.478;2023-05-10T02:58:04;8.07;;;2.60;;
49824;SDS011;35714;55.708;37.478;2023-05-10T03:00:30;8.85;;;2.53;;
49824;SDS011;35714;55.708;37.478;2023-05-10T03:02:56;6.50;;;2.70;;
49824;SDS011;35714;55.708;37.478;2023-05-10T03:05:22;6.95;;;2.33;;
49824;SDS011;35714;55.708;37.478;2023-05-10T03:07:47;4.85;;;2.30;;
49824;SDS011;35714;55.708;37.478;2023-05-10T03:10:13;15.57;;;2.45;;
49824;SDS011;35714;55.708;37.478;2023-05-10T03:18:21;6.38;;;2.78;;
49824;SDS011;35714;55.708;37.478;2023-05-10T03:20:48;6.53;;;2.30;;
49824;SDS011;35714;55.708;37.478;2023-05-10T03:23:26;7.13;;;2.15;;
49824;SDS011;35714;55.708;37.478;2023-05-10T03:25:55;4.95;;;2.20;;
49824;SDS011;35714;55.708;37.478;2023-05-10T03:28:22;10.13;;;2.60;;
49824;SDS011;35714;55.708;37.478;2023-05-10T03:30:51;9.15;;;2.38;;
49824;SDS011;35714;55.708;37.478;2023-05-10T03:33:18;6.00;;;2.47;;
49824;SDS011;35714;55.708;37.478;2023-05-10T03:35:45;10.32;;;2.97;;
49824;SDS011;35714;55.708;37.478;2023-05-10T03:38:12;7.57;;;2.55;;
49824;SDS011;35714;55.708;37.478;2023-05-10T03:40:38;6.32;;;2.38;;
49824;SDS011;35714;55.708;37.478;2023-05-10T03:43:04;7.47;;;2.83;;
49824;SDS011;35714;55.708;37.478;2023-05-10T03:45:30;8.32;;;3.00;;
49824;SDS011;35714;55.708;37.478;2023-05-10T03:47:59;8.38;;;2.22;;
49824;SDS011;35714;55.708;37.478;2023-05-10T03:50:25;7.57;;;2.53;;
49824;SDS011;35714;55.708;37.478;2023-05-10T03:52:52;9.57;;;2.83;;
49824;SDS011;35714;55.708;37.478;2023-05-10T03:55:18;7.30;;;2.13;;
49824;SDS011;35714;55.708;37.478;2023-05-10T03:57:45;8.38;;;2.83;;
49824;SDS011;35714;55.708;37.478;2023-05-10T04:00:11;5.90;;;2.38;;
49824;SDS011;35714;55.708;37.478;2023-05-10T04:02:41;6.93;;;2.30;;
49824;SDS011;35714;55.708;37.478;2023-05-10T04:05:09;9.85;;;2.75;;
49824;SDS011;35714;55.708;37.478;2023-05-10T04:07:35;9.48;;;2.90;;
49824;SDS011;35714;55.708;37.478;2023-05-10T04:10:01;9.30;;;3.28;;
49824;SDS011;35714;55.708;37.478;2023-05-10T04:12:30;6.70;;;2.63;;
49824;SDS011;35714;55.708;37.478;2023-05-10T04:14:55;6.18;;;2.58;;
49824;SDS011;35714;55.708;37.478;2023-05-10T04:17:21;7.35;;;2.72;;
49824;SDS011;35714;55.708;37.478;2023-05-10T04:19:47;7.32;;;2.47;;
49824;SDS011;35714;55.708;37.478;2023-05-10T04:22:12;6.95;;;2.60;;
49824;SDS011;35714;55.708;37.478;2023-05-10T04:24:38;6.22;;;2.60;;
49824;SDS011;35714;55.708;37.478;2023-05-10T04:27:03;12.93;;;2.75;;
49824;SDS011;35714;55.708;37.478;2023-05-10T04:29:29;10.15;;;2.85;;
49824;SDS011;35714;55.708;37.478;2023-05-10T04:31:55;7.32;;;2.45;;
49824;SDS011;35714;55.708;37.478;2023-05-10T04:34:22;9.00;;;2.75;;
49824;SDS011;35714;55.708;37.478;2023-05-10T04:36:47;11.43;;;3.03;;
49824;SDS011;35714;55.708;37.478;2023-05-10T04:39:13;8.43;;;2.67;;
49824;SDS011;35714;55.708;37.478;2023-05-10T04:41:39;8.60;;;2.88;;
49824;SDS011;35714;55.708;37.478;2023-05-10T04:44:04;9.60;;;2.55;;
49824;SDS011;35714;55.708;37.478;2023-05-10T04:46:30;8.73;;;2.70;;
49824;SDS011;35714;55.708;37.478;2023-05-10T04:48:56;7.55;;;2.65;;
49824;SDS011;35714;55.708;37.478;2023-05-10T04:51:21;7.07;;;2.65;;
49824;SDS011;35714;55.708;37.478;2023-05-10T04:53:47;6.00;;;2.47;;
49824;SDS011;35714;55.708;37.478;2023-05-10T04:56:13;6.85;;;2.22;;
49824;SDS011;35714;55.708;37.478;2023-05-10T04:58:38;9.90;;;2.47;;
49824;SDS011;35714;55.708;37.478;2023-05-10T05:01:07;10.68;;;2.38;;
49824;SDS011;35714;55.708;37.478;2023-05-10T05:03:34;7.10;;;2.30;;
49824;SDS011;35714;55.708;37.478;2023-05-10T05:06:00;9.18;;;2.22;;
49824;SDS011;35714;55.708;37.478;2023-05-10T05:08:26;5.90;;;2.40;;
49824;SDS011;35714;55.708;37.478;2023-05-10T05:10:52;7.78;;;2.40;;
49824;SDS011;35714;55.708;37.478;2023-05-10T05:13:17;5.50;;;2.10;;
49824;SDS011;35714;55.708;37.478;2023-05-10T05:15:43;10.15;;;2.40;;
49824;SDS011;35714;55.708;37.478;2023-05-10T05:18:09;8.00;;;1.90;;
49824;SDS011;35714;55.708;37.478;2023-05-10T05:20:35;10.23;;;2.00;;
49824;SDS011;35714;55.708;37.478;2023-05-10T05:23:01;6.90;;;2.30;;
49824;SDS011;35714;55.708;37.478;2023-05-10T05:25:26;5.22;;;1.52;;
49824;SDS011;35714;55.708;37.478;2023-05-10T05:27:52;5.10;;;2.05;;
49824;SDS011;35714;55.708;37.478;2023-05-10T05:30:18;6.45;;;2.00;;
49824;SDS011;35714;55.708;37.478;2023-05-10T05:32:43;5.13;;;1.80;;
49824;SDS011;35714;55.708;37.478;2023-05-10T05:35:09;11.18;;;2.28;;
49824;SDS011;35714;55.708;37.478;2023-05-10T05:37:35;6.90;;;2.40;;
49824;SDS011;35714;55.708;37.478;2023-05-10T05:40:01;4.63;;;1.63;;
49824;SDS011;35714;55.708;37.478;2023-05-10T05:42:29;7.20;;;1.85;;
49824;SDS011;35714;55.708;37.478;2023-05-10T05:44:56;5.97;;;1.90;;
49824;SDS011;35714;55.708;37.478;2023-05-10T05:47:22;4.43;;;1.60;;
49824;SDS011;35714;55.708;37.478;2023-05-10T05:49:47;8.13;;;1.75;;
49824;SDS011;35714;55.708;37.478;2023-05-10T05:52:13;3.50;;;1.42;;
49824;SDS011;35714;55.708;37.478;2023-05-10T05:54:39;5.95;;;1.48;;
49824;SDS011;35714;55.708;37.478;2023-05-10T05:57:05;5.93;;;2.08;;
49824;SDS011;35714;55.708;37.478;2023-05-10T05:59:30;6.47;;;1.60;;
49824;SDS011;35714;55.708;37.478;2023-05-10T06:01:56;5.43;;;1.70;;
49824;SDS011;35714;55.708;37.478;2023-05-10T06:04:22;4.15;;;1.30;;
49824;SDS011;35714;55.708;37.478;2023-05-10T06:06:47;6.03;;;1.50;;
49824;SDS011;35714;55.708;37.478;2023-05-10T06:09:13;6.78;;;1.50;;
49824;SDS011;35714;55.708;37.478;2023-05-10T06:11:39;5.20;;;1.45;;
49824;SDS011;35714;55.708;37.478;2023-05-10T06:14:04;3.83;;;1.40;;
49824;SDS011;35714;55.708;37.478;2023-05-10T06:16:32;6.28;;;1.92;;
49824;SDS011;35714;55.708;37.478;2023-05-10T06:18:58;4.38;;;1.52;;
49824;SDS011;35714;55.708;37.478;2023-05-10T06:21:24;4.40;;;1.60;;
49824;SDS011;35714;55.708;37.478;2023-05-10T06:23:49;4.90;;;1.50;;
49824;SDS011;35714;55.708;37.478;2023-05-10T06:26:15;3.22;;;1.45;;
49824;SDS011;35714;55.708;37.478;2023-05-10T06:28:41;5.65;;;1.77;;
49824;SDS011;35714;55.708;37.478;2023-05-10T06:31:07;6.57;;;1.42;;
49824;SDS011;35714;55.708;37.478;2023-05-10T06:33:33;3.88;;;1.38;;
49824;SDS011;35714;55.708;37.478;2023-05-10T06:35:59;7.07;;;1.38;;
49824;SDS011;35714;55.708;37.478;2023-05-10T06:38:24;4.40;;;1.70;;
49824;SDS011;35714;55.708;37.478;2023-05-10T06:40:51;3.80;;;1.52;;
49824;SDS011;35714;55.708;37.478;2023-05-10T06:43:17;4.07;;;1.63;;
49824;SDS011;35714;55.708;37.478;2023-05-10T06:45:42;4.47;;;1.45;;
49824;SDS011;35714;55.708;37.478;2023-05-10T06:48:08;4.90;;;1.70;;
49824;SDS011;35714;55.708;37.478;2023-05-10T06:50:34;5.78;;;1.80;;
49824;SDS011;35714;55.708;37.478;2023-05-10T06:53:00;6.57;;;1.60;;
49824;SDS011;35714;55.708;37.478;2023-05-10T06:55:27;4.07;;;1.42;;
49824;SDS011;35714;55.708;37.478;2023-05-10T06:57:53;4.72;;;1.48;;
49824;SDS011;35714;55.708;37.478;2023-05-10T07:00:19;6.15;;;1.52;;
49824;SDS011;35714;55.708;37.478;2023-05-10T07:02:46;3.45;;;1.48;;
49824;SDS011;35714;55.708;37.478;2023-05-10T07:05:12;4.80;;;1.35;;
49824;SDS011;35714;55.708;37.478;2023-05-10T07:07:38;3.22;;;1.10;;
49824;SDS011;35714;55.708;37.478;2023-05-10T07:10:04;4.38;;;1.58;;
49824;SDS011;35714;55.708;37.478;2023-05-10T07:12:31;3.55;;;1.35;;
49824;SDS011;35714;55.708;37.478;2023-05-10T07:14:56;4.00;;;1.38;;
49824;SDS011;35714;55.708;37.478;2023-05-10T07:17:22;3.85;;;1.10;;
49824;SDS011;35714;55.708;37.478;2023-05-10T07:19:48;2.83;;;1.08;;
49824;SDS011;35714;55.708;37.478;2023-05-10T07:22:14;3.60;;;1.10;;
49824;SDS011;35714;55.708;37.478;2023-05-10T07:24:40;6.40;;;1.33;;
49824;SDS011;35714;55.708;37.478;2023-05-10T07:27:06;4.25;;;1.15;;
49824;SDS011;35714;55.708;37.478;2023-05-10T07:29:32;3.70;;;1.40;;
49824;SDS011;35714;55.708;37.478;2023-05-10T07:31:58;4.38;;;1.80;;
49824;SDS011;35714;55.708;37.478;2023-05-10T07:34:23;3.08;;;1.00;;
49824;SDS011;35714;55.708;37.478;2023-05-10T07:36:49;5.88;;;1.02;;
49824;SDS011;35714;55.708;37.478;2023-05-10T07:39:15;6.38;;;1.98;;
49824;SDS011;35714;55.708;37.478;2023-05-10T07:41:42;3.97;;;1.45;;
49824;SDS011;35714;55.708;37.478;2023-05-10T07:44:07;3.45;;;1.33;;
49824;SDS011;35714;55.708;37.478;2023-05-10T07:46:33;6.00;;;1.75;;
49824;SDS011;35714;55.708;37.478;2023-05-10T07:48:59;4.65;;;1.42;;
49824;SDS011;35714;55.708;37.478;2023-05-10T07:51:24;3.83;;;1.40;;
49824;SDS011;35714;55.708;37.478;2023-05-10T07:53:50;2.95;;;1.35;;
49824;SDS011;35714;55.708;37.478;2023-05-10T07:56:23;7.10;;;2.25;;
49824;SDS011;35714;55.708;37.478;2023-05-10T07:58:52;6.43;;;1.40;;
49824;SDS011;35714;55.708;37.478;2023-05-10T08:01:19;3.10;;;1.08;;
49824;SDS011;35714;55.708;37.478;2023-05-10T08:03:45;3.38;;;0.93;;
49824;SDS011;35714;55.708;37.478;2023-05-10T08:06:11;3.33;;;1.20;;
49824;SDS011;35714;55.708;37.478;2023-05-10T08:08:37;3.42;;;1.35;;
49824;SDS011;35714;55.708;37.478;2023-05-10T08:11:03;4.03;;;1.50;;
49824;SDS011;35714;55.708;37.478;2023-05-10T08:13:29;3.65;;;1.20;;
49824;SDS011;35714;55.708;37.478;2023-05-10T08:15:56;4.90;;;1.20;;
49824;SDS011;35714;55.708;37.478;2023-05-10T08:18:22;3.97;;;1.20;;
49824;SDS011;35714;55.708;37.478;2023-05-10T08:20:47;3.08;;;1.20;;
49824;SDS011;35714;55.708;37.478;2023-05-10T08:23:13;3.53;;;1.23;;
49824;SDS011;35714;55.708;37.478;2023-05-10T08:25:39;4.25;;;1.13;;
49824;SDS011;35714;55.708;37.478;2023-05-10T08:28:05;5.03;;;1.40;;
49824;SDS011;35714;55.708;37.478;2023-05-10T08:30:31;4.55;;;1.35;;
49824;SDS011;35714;55.708;37.478;2023-05-10T08:32:56;3.72;;;1.23;;
49824;SDS011;35714;55.708;37.478;2023-05-10T08:35:22;4.07;;;1.48;;
49824;SDS011;35714;55.708;37.478;2023-05-10T08:37:48;3.53;;;0.82;;
49824;SDS011;35714;55.708;37.478;2023-05-10T08:40:13;3.00;;;1.27;;
49824;SDS011;35714;55.708;37.478;2023-05-10T08:42:45;6.18;;;1.17;;
49824;SDS011;35714;55.708;37.478;2023-05-10T08:45:16;3.58;;;1.17;;
49824;SDS011;35714;55.708;37.478;2023-05-10T08:47:44;2.60;;;1.17;;
49824;SDS011;35714;55.708;37.478;2023-05-10T08:50:10;2.67;;;1.30;;
49824;SDS011;35714;55.708;37.478;2023-05-10T08:52:37;4.03;;;1.40;;
49824;SDS011;35714;55.708;37.478;2023-05-10T08:55:05;4.78;;;1.20;;
49824;SDS011;35714;55.708;37.478;2023-05-10T08:57:31;3.10;;;1.10;;
49824;SDS011;35714;55.708;37.478;2023-05-10T08:59:57;7.82;;;1.60;;
49824;SDS011;35714;55.708;37.478;2023-05-10T09:02:24;2.38;;;1.02;;
49824;SDS011;35714;55.708;37.478;2023-05-10T09:04:51;2.10;;;1.00;;
49824;SDS011;35714;55.708;37.478;2023-05-10T09:07:16;2.53;;;0.90;;
49824;SDS011;35714;55.708;37.478;2023-05-10T09:09:42;2.42;;;0.70;;
49824;SDS011;35714;55.708;37.478;2023-05-10T09:12:09;2.38;;;0.60;;
49824;SDS011;35714;55.708;37.478;2023-05-10T09:14:36;6.90;;;0.95;;
49824;SDS011;35714;55.708;37.478;2023-05-10T09:17:03;2.15;;;0.82;;
49824;SDS011;35714;55.708;37.478;2023-05-10T09:19:30;3.67;;;1.02;;
49824;SDS011;35714;55.708;37.478;2023-05-10T09:21:55;2.72;;;0.80;;
49824;SDS011;35714;55.708;37.478;2023-05-10T09:24:25;2.35;;;0.73;;
49824;SDS011;35714;55.708;37.478;2023-05-10T09:26:51;2.92;;;1.00;;
49824;SDS011;35714;55.708;37.478;2023-05-10T09:29:17;1.67;;;0.60;;
49824;SDS011;35714;55.708;37.478;2023-05-10T09:31:43;2.08;;;0.82;;
49824;SDS011;35714;55.708;37.478;2023-05-10T09:34:19;2.42;;;0.93;;
49824;SDS011;35714;55.708;37.478;2023-05-10T09:36:58;3.38;;;1.23;;
49824;SDS011;35714;55.708;37.478;2023-05-10T09:39:35;2.60;;;0.68;;
49824;SDS011;35714;55.708;37.478;2023-05-10T09:42:06;2.92;;;0.90;;
49824;SDS011;35714;55.708;37.478;2023-05-10T09:44:35;1.92;;;0.70;;
49824;SDS011;35714;55.708;37.478;2023-05-10T09:47:02;3.22;;;1.02;;
49824;SDS011;35714;55.708;37.478;2023-05-10T09:49:28;4.07;;;0.80;;
49824;SDS011;35714;55.708;37.478;2023-05-10T09:51:59;4.18;;;1.02;;
49824;SDS011;35714;55.708;37.478;2023-05-10T09:54:34;4.13;;;0.90;;
49824;SDS011;35714;55.708;37.478;2023-05-10T09:57:00;2.88;;;1.10;;
49824;SDS011;35714;55.708;37.478;2023-05-10T09:59:26;2.90;;;0.90;;
49824;SDS011;35714;55.708;37.478;2023-05-10T10:01:55;3.03;;;1.10;;
49824;SDS011;35714;55.708;37.478;2023-05-10T10:04:22;2.83;;;1.25;;
49824;SDS011;35714;55.708;37.478;2023-05-10T10:06:58;4.55;;;1.02;;
49824;SDS011;35714;55.708;37.478;2023-05-10T10:09:25;2.47;;;0.93;;
49824;SDS011;35714;55.708;37.478;2023-05-10T10:11:51;2.85;;;0.93;;
49824;SDS011;35714;55.708;37.478;2023-05-10T10:14:18;3.00;;;1.08;;
49824;SDS011;35714;55.708;37.478;2023-05-10T10:16:44;3.40;;;1.00;;
49824;SDS011;35714;55.708;37.478;2023-05-10T10:19:10;4.57;;;1.33;;
49824;SDS011;35714;55.708;37.478;2023-05-10T10:21:37;3.42;;;1.00;;
49824;SDS011;35714;55.708;37.478;2023-05-10T10:24:03;5.65;;;1.30;;
49824;SDS011;35714;55.708;37.478;2023-05-10T10:26:32;4.22;;;1.20;;
49824;SDS011;35714;55.708;37.478;2023-05-10T10:29:04;4.88;;;1.15;;
49824;SDS011;35714;55.708;37.478;2023-05-10T10:31:51;8.27;;;1.55;;
49824;SDS011;35714;55.708;37.478;2023-05-10T10:34:29;3.22;;;1.20;;
49824;SDS011;35714;55.708;37.478;2023-05-10T10:36:57;5.65;;;1.30;;
49824;SDS011;35714;55.708;37.478;2023-05-10T10:39:26;6.20;;;1.30;;
49824;SDS011;35714;55.708;37.478;2023-05-10T10:41:53;3.50;;;1.30;;
49824;SDS011;35714;55.708;37.478;2023-05-10T10:47:03;2.83;;;1.15;;
49824;SDS011;35714;55.708;37.478;2023-05-10T10:52:39;3.30;;;1.25;;
49824;SDS011;35714;55.708;37.478;2023-05-10T10:55:10;4.43;;;1.63;;
49824;SDS011;35714;55.708;37.478;2023-05-10T11:02:45;7.50;;;1.23;;
49824;SDS011;35714;55.708;37.478;2023-05-10T11:08:26;5.18;;;1.95;;
49824;SDS011;35714;55.708;37.478;2023-05-10T11:15:54;6.60;;;1.60;;
49824;SDS011;35714;55.708;37.478;2023-05-10T11:18:26;2.53;;;1.10;;
49824;SDS011;35714;55.708;37.478;2023-05-10T11:20:55;3.90;;;1.42;;
49824;SDS011;35714;55.708;37.478;2023-05-10T11:23:23;5.15;;;1.52;;
49824;SDS011;35714;55.708;37.478;2023-05-10T11:25:49;5.28;;;1.17;;
49824;SDS011;35714;55.708;37.478;2023-05-10T11:28:18;2.88;;;1.30;;
49824;SDS011;35714;55.708;37.478;2023-05-10T11:30:45;6.60;;;1.83;;
49824;SDS011;35714;55.708;37.478;2023-05-10T11:33:17;3.03;;;1.48;;
49824;SDS011;35714;55.708;37.478;2023-05-10T11:35:44;5.53;;;1.52;;
49824;SDS011;35714;55.708;37.478;2023-05-10T11:38:11;4.32;;;1.73;;
49824;SDS011;35714;55.708;37.478;2023-05-10T11:40:38;5.35;;;1.52;;
49824;SDS011;35714;55.708;37.478;2023-05-10T11:43:05;5.75;;;1.48;;
49824;SDS011;35714;55.708;37.478;2023-05-10T11:45:34;7.38;;;1.70;;
49824;SDS011;35714;55.708;37.478;2023-05-10T11:48:00;4.55;;;1.60;;
49824;SDS011;35714;55.708;37.478;2023-05-10T11:50:27;5.18;;;1.50;;
49824;SDS011;35714;55.708;37.478;2023-05-10T11:52:54;4.70;;;1.42;;
49824;SDS011;35714;55.708;37.478;2023-05-10T11:55:21;7.32;;;1.63;;
49824;SDS011;35714;55.708;37.478;2023-05-10T11:57:47;4.63;;;1.60;;
49824;SDS011;35714;55.708;37.478;2023-05-10T12:00:16;4.20;;;1.85;;
49824;SDS011;35714;55.708;37.478;2023-05-10T12:02:42;5.57;;;1.48;;
49824;SDS011;35714;55.708;37.478;2023-05-10T12:05:08;8.88;;;1.50;;
49824;SDS011;35714;55.708;37.478;2023-05-10T12:07:34;4.55;;;1.30;;
49824;SDS011;35714;55.708;37.478;2023-05-10T12:12:42;2.72;;;1.13;;
49824;SDS011;35714;55.708;37.478;2023-05-10T12:17:46;4.03;;;1.83;;
49824;SDS011;35714;55.708;37.478;2023-05-10T12:20:22;3.17;;;1.25;;
49824;SDS011;35714;55.708;37.478;2023-05-10T12:22:53;3.22;;;1.33;;
49824;SDS011;35714;55.708;37.478;2023-05-10T12:25:20;5.20;;;1.30;;
49824;SDS011;35714;55.708;37.478;2023-05-10T12:27:54;2.72;;;1.20;;
49824;SDS011;35714;55.708;37.478;2023-05-10T12:32:50;3.13;;;1.30;;
49824;SDS011;35714;55.708;37.478;2023-05-10T12:35:16;4.50;;;1.95;;
49824;SDS011;35714;55.708;37.478;2023-05-10T12:37:43;4.30;;;1.20;;
49824;SDS011;35714;55.708;37.478;2023-05-10T12:40:09;4.50;;;1.65;;
49824;SDS011;35714;55.708;37.478;2023-05-10T12:42:36;3.80;;;1.38;;
49824;SDS011;35714;55.708;37.478;2023-05-10T12:45:04;4.55;;;1.42;;
49824;SDS011;35714;55.708;37.478;2023-05-10T12:47:32;4.65;;;1.80;;
49824;SDS011;35714;55.708;37.478;2023-05-10T12:49:58;6.70;;;1.98;;
49824;SDS011;35714;55.708;37.478;2023-05-10T12:52:25;4.50;;;1.65;;
49824;SDS011;35714;55.708;37.478;2023-05-10T12:54:51;6.38;;;1.48;;
49824;SDS011;35714;55.708;37.478;2023-05-10T12:57:18;3.65;;;1.35;;
49824;SDS011;35714;55.708;37.478;2023-05-10T12:59:45;3.42;;;1.35;;
49824;SDS011;35714;55.708;37.478;2023-05-10T13:02:11;2.83;;;1.27;;
49824;SDS011;35714;55.708;37.478;2023-05-10T13:04:36;4.07;;;1.58;;
49824;SDS011;35714;55.708;37.478;2023-05-10T13:07:06;5.63;;;1.50;;
49824;SDS011;35714;55.708;37.478;2023-05-10T13:09:32;6.10;;;1.55;;
49824;SDS011;35714;55.708;37.478;2023-05-10T13:11:57;4.35;;;1.30;;
49824;SDS011;35714;55.708;37.478;2023-05-10T13:14:23;5.03;;;2.47;;
49824;SDS011;35714;55.708;37.478;2023-05-10T13:16:49;3.85;;;1.63;;
49824;SDS011;35714;55.708;37.478;2023-05-10T13:19:15;2.88;;;1.35;;
49824;SDS011;35714;55.708;37.478;2023-05-10T13:21:42;4.60;;;1.40;;
49824;SDS011;35714;55.708;37.478;2023-05-10T13:24:09;6.45;;;1.30;;
49824;SDS011;35714;55.708;37.478;2023-05-10T13:26:36;6.78;;;1.30;;
49824;SDS011;35714;55.708;37.478;2023-05-10T13:29:02;2.80;;;1.00;;
49824;SDS011;35714;55.708;37.478;2023-05-10T13:31:28;4.25;;;1.25;;
49824;SDS011;35714;55.708;37.478;2023-05-10T13:33:55;5.60;;;1.23;;
49824;SDS011;35714;55.708;37.478;2023-05-10T13:36:21;4.78;;;1.15;;
49824;SDS011;35714;55.708;37.478;2023-05-10T13:38:48;4.63;;;1.10;;
49824;SDS011;35714;55.708;37.478;2023-05-10T13:41:13;3.00;;;1.30;;
49824;SDS011;35714;55.708;37.478;2023-05-10T13:43:39;3.42;;;1.30;;
49824;SDS011;35714;55.708;37.478;2023-05-10T13:46:05;4.18;;;1.67;;
49824;SDS011;35714;55.708;37.478;2023-05-10T13:48:31;4.15;;;1.40;;
49824;SDS011;35714;55.708;37.478;2023-05-10T13:50:56;3.97;;;1.40;;
49824;SDS011;35714;55.708;37.478;2023-05-10T13:53:22;7.53;;;1.63;;
49824;SDS011;35714;55.708;37.478;2023-05-10T13:59:06;10.77;;;7.97;;
49824;SDS011;35714;55.708;37.478;2023-05-10T14:01:33;7.97;;;4.15;;
49824;SDS011;35714;55.708;37.478;2023-05-10T14:03:59;5.03;;;2.20;;
49824;SDS011;35714;55.708;37.478;2023-05-10T14:06:25;4.22;;;1.73;;
49824;SDS011;35714;55.708;37.478;2023-05-10T14:08:52;5.18;;;1.92;;
49824;SDS011;35714;55.708;37.478;2023-05-10T14:11:19;4.45;;;1.20;;
49824;SDS011;35714;55.708;37.478;2023-05-10T14:13:45;4.18;;;1.40;;
49824;SDS011;35714;55.708;37.478;2023-05-10T14:16:11;4.15;;;0.93;;
49824;SDS011;35714;55.708;37.478;2023-05-10T14:18:37;5.60;;;1.40;;
49824;SDS011;35714;55.708;37.478;2023-05-10T14:21:03;4.35;;;1.92;;
49824;SDS011;35714;55.708;37.478;2023-05-10T14:23:29;3.22;;;1.30;;
49824;SDS011;35714;55.708;37.478;2023-05-10T14:25:55;4.05;;;1.50;;
49824;SDS011;35714;55.708;37.478;2023-05-10T14:28:21;4.25;;;1.10;;
49824;SDS011;35714;55.708;37.478;2023-05-10T14:30:48;10.60;;;1.92;;
49824;SDS011;35714;55.708;37.478;2023-05-10T14:33:13;5.05;;;1.67;;
49824;SDS011;35714;55.708;37.478;2023-05-10T14:35:39;4.50;;;1.10;;
49824;SDS011;35714;55.708;37.478;2023-05-10T14:38:05;4.28;;;1.98;;
49824;SDS011;35714;55.708;37.478;2023-05-10T14:40:31;4.03;;;1.50;;
49824;SDS011;35714;55.708;37.478;2023-05-10T14:42:56;4.18;;;1.48;;
49824;SDS011;35714;55.708;37.478;2023-05-10T14:45:22;8.13;;;1.20;;
49824;SDS011;35714;55.708;37.478;2023-05-10T14:47:48;6.78;;;1.33;;
49824;SDS011;35714;55.708;37.478;2023-05-10T14:50:15;3.85;;;1.70;;
49824;SDS011;35714;55.708;37.478;2023-05-10T14:56:03;4.30;;;1.48;;
49824;SDS011;35714;55.708;37.478;2023-05-10T14:58:29;3.60;;;1.50;;
49824;SDS011;35714;55.708;37.478;2023-05-10T15:00:58;4.25;;;1.25;;
49824;SDS011;35714;55.708;37.478;2023-05-10T15:03:24;3.50;;;1.25;;
49824;SDS011;35714;55.708;37.478;2023-05-10T15:05:50;5.07;;;1.35;;
49824;SDS011;35714;55.708;37.478;2023-05-10T15:08:16;4.18;;;1.40;;
49824;SDS011;35714;55.708;37.478;2023-05-10T15:10:42;4.30;;;1.20;;
49824;SDS011;35714;55.708;37.478;2023-05-10T15:13:08;6.25;;;1.75;;
49824;SDS011;35714;55.708;37.478;2023-05-10T15:15:34;4.65;;;1.70;;
49824;SDS011;35714;55.708;37.478;2023-05-10T15:18:00;3.85;;;1.30;;
49824;SDS011;35714;55.708;37.478;2023-05-10T15:20:26;4.95;;;1.45;;
49824;SDS011;35714;55.708;37.478;2023-05-10T15:22:51;5.10;;;1.40;;
49824;SDS011;35714;55.708;37.478;2023-05-10T15:25:17;4.40;;;1.63;;
49824;SDS011;35714;55.708;37.478;2023-05-10T15:27:43;3.65;;;1.15;;
49824;SDS011;35714;55.708;37.478;2023-05-10T15:30:09;5.93;;;1.50;;
49824;SDS011;35714;55.708;37.478;2023-05-10T15:32:35;9.77;;;1.42;;